Time;durP1;ratioP1;P1;durP2;ratioP2;P2;SDS_P1;SDS_P2;PMS_P1;PMS_P2;Temp;Humidity;BMP_temperature;BMP_pressure;BME280_temperature;BME280_humidity;BME280_pressure;Samples;Min_cycle;Max_cycle;Signal;HPM_P1;HPM_P2
2023/05/12 00:02:40;;;;;;;12.60;5.32;;;;;;;10.85;74.09;100545.09;6096449;23;20473;-78
2023/05/12 00:06:13;;;;;;;9.77;5.30;;;;;;;10.81;73.91;100547.72;6072902;23;20022;-80
2023/05/12 00:09:53;;;;;;;13.18;5.22;;;;;;;10.70;73.38;100545.94;6054389;23;20097;-76
2023/05/12 00:14:14;;;;;;;8.65;5.00;;;;;;;10.41;72.72;100532.84;6004640;23;20031;-77
2023/05/12 00:17:47;;;;;;;9.52;4.75;;;;;;;10.53;73.20;100548.47;6091896;23;20348;-76
2023/05/12 00:21:16;;;;;;;8.20;5.32;;;;;;;10.46;73.43;100536.34;6097538;23;20022;-78
2023/05/12 00:24:48;;;;;;;11.30;4.88;;;;;;;10.32;72.57;100557.06;6073399;23;20022;-75
2023/05/12 00:28:27;;;;;;;8.65;4.93;;;;;;;10.34;72.88;100551.84;6096941;23;20018;-78
2023/05/12 00:32:03;;;;;;;6.57;4.75;;;;;;;10.37;73.21;100557.06;6074529;23;20049;-77
2023/05/12 00:35:30;;;;;;;10.63;4.95;;;;;;;10.29;72.06;100546.63;6067499;23;20030;-77
2023/05/12 00:38:59;;;;;;;10.57;4.70;;;;;;;10.23;72.26;100565.69;6068721;23;20074;-78
2023/05/12 00:42:31;;;;;;;11.50;4.85;;;;;;;10.08;72.52;100561.28;6066609;23;20018;-77
2023/05/12 00:46:00;;;;;;;14.60;5.75;;;;;;;10.25;72.39;100563.09;6067406;23;20073;-77
2023/05/12 00:49:29;;;;;;;9.93;4.57;;;;;;;10.26;71.87;100559.63;6066991;23;20022;-75
2023/05/12 00:52:57;;;;;;;7.85;4.22;;;;;;;10.35;72.38;100548.38;6067649;23;20407;-77
2023/05/12 00:56:50;;;;;;;7.18;4.40;;;;;;;10.37;71.80;100544.06;6095464;23;20018;-76
2023/05/12 01:00:45;;;;;;;6.25;4.00;;;;;;;10.24;72.00;100561.34;6066659;23;20023;-76
2023/05/12 01:04:42;;;;;;;9.05;4.45;;;;;;;10.14;71.10;100556.97;6068243;23;20027;-79
2023/05/12 01:08:17;;;;;;;7.25;4.50;;;;;;;10.11;71.27;100542.22;6043788;23;20027;-78
2023/05/12 01:11:45;;;;;;;10.07;4.20;;;;;;;10.10;71.25;100558.69;6091582;23;20018;-79
2023/05/12 01:15:17;;;;;;;10.00;5.05;;;;;;;10.04;70.96;100563.88;6092110;23;20514;-78
2023/05/12 01:18:49;;;;;;;7.15;4.65;;;;;;;10.07;71.09;100559.53;6066230;23;20019;-77
2023/05/12 01:22:58;;;;;;;6.78;4.10;;;;;;;10.01;70.72;100553.44;6067672;23;20089;-78
2023/05/12 01:27:19;;;;;;;10.18;4.40;;;;;;;9.89;70.01;100552.50;6069064;23;20049;-79
2023/05/12 01:32:00;;;;;;;8.25;4.10;;;;;;;9.83;69.82;100554.19;6088993;23;20082;-79
2023/05/12 01:41:05;;;;;;;7.30;4.00;;;;;;;9.85;69.63;100547.28;6010059;23;20030;-77
2023/05/12 01:45:47;;;;;;;8.20;4.20;;;;;;;10.04;69.67;100553.47;5929437;24;20516;-74
2023/05/12 01:49:45;;;;;;;8.75;4.25;;;;;;;10.10;69.68;100550.88;5925342;24;20152;-77
2023/05/12 01:53:15;;;;;;;7.68;4.20;;;;;;;10.10;69.35;100551.75;5924048;24;20025;-76
2023/05/12 01:57:16;;;;;;;7.63;4.50;;;;;;;10.13;69.27;100565.66;5925032;24;20462;-79
2023/05/12 02:00:45;;;;;;;7.25;4.13;;;;;;;10.22;69.12;100558.75;5902294;24;20029;-77
2023/05/12 02:09:29;;;;;;;6.75;4.10;;;;;;;10.25;68.52;100547.47;5925680;24;20032;-77
2023/05/12 02:13:35;;;;;;;6.60;4.20;;;;;;;10.43;68.01;100556.25;5981366;24;20454;-77
2023/05/12 02:17:12;;;;;;;6.50;3.97;;;;;;;10.43;68.00;100554.53;5981971;23;20057;-76
2023/05/12 02:20:45;;;;;;;5.50;4.00;;;;;;;10.51;67.34;100560.63;5958155;24;20020;-76
2023/05/12 02:24:30;;;;;;;5.82;4.22;;;;;;;10.55;67.36;100549.34;5943912;24;20028;-80
2023/05/12 02:37:56;;;;;;;10.32;3.88;;;;;;;10.77;66.77;100541.59;5937017;24;20115;-78
2023/05/12 02:41:26;;;;;;;8.20;4.18;;;;;;;10.73;66.19;100529.44;5931120;24;20036;-79
2023/05/12 02:45:19;;;;;;;7.90;4.10;;;;;;;11.03;66.05;100543.38;5934851;24;20025;-75
2023/05/12 02:48:44;;;;;;;8.70;4.18;;;;;;;11.13;66.20;100550.38;5930805;24;20372;-78
2023/05/12 02:52:11;;;;;;;8.13;4.30;;;;;;;11.18;65.86;100531.22;5952691;24;20024;-78
2023/05/12 02:55:47;;;;;;;5.82;3.55;;;;;;;11.41;65.63;100555.56;5930648;24;20368;-78
2023/05/12 02:59:14;;;;;;;6.55;3.70;;;;;;;11.49;64.99;100552.94;5997161;23;20023;-77
2023/05/12 03:02:52;;;;;;;5.57;3.47;;;;;;;11.65;64.37;100556.41;5987359;23;20030;-77
2023/05/12 03:06:24;;;;;;;6.82;4.22;;;;;;;11.79;63.91;100564.22;5987780;23;20106;-77
2023/05/12 03:09:58;;;;;;;6.57;3.60;;;;;;;11.94;63.80;100555.50;6007991;23;20024;-78
2023/05/12 03:13:27;;;;;;;5.95;4.00;;;;;;;12.14;63.51;100560.66;6008425;23;20027;-77
2023/05/12 03:16:59;;;;;;;8.13;4.18;;;;;;;12.36;62.65;100557.97;5987180;23;20360;-77
2023/05/12 03:20:28;;;;;;;16.95;5.00;;;;;;;12.55;62.29;100552.69;5998638;23;20098;-76
2023/05/12 03:24:10;;;;;;;7.30;4.63;;;;;;;12.74;62.04;100556.94;5987650;23;20149;-78
2023/05/12 03:32:16;;;;;;;11.65;5.63;;;;;;;13.01;62.44;100562.00;6036670;23;20019;-79
2023/05/12 03:40:06;;;;;;;8.68;5.32;;;;;;;13.47;61.55;100558.19;5980255;23;20099;-76
2023/05/12 03:47:51;;;;;;;11.38;5.70;;;;;;;13.84;61.18;100558.69;6040574;23;20452;-79
2023/05/12 03:51:20;;;;;;;13.30;5.43;;;;;;;14.16;60.82;100552.25;6038479;23;20456;-78
2023/05/12 03:54:50;;;;;;;11.13;5.25;;;;;;;14.45;60.67;100553.63;6016903;23;20058;-77
2023/05/12 04:04:01;;;;;;;16.27;5.15;;;;;;;15.24;59.37;100535.94;6010164;23;20030;-78
2023/05/12 04:07:43;;;;;;;9.68;5.18;;;;;;;15.60;58.71;100535.34;6003205;23;20051;-77
2023/05/12 04:11:11;;;;;;;8.15;4.20;;;;;;;16.01;57.89;100535.47;6010339;23;20020;-76
2023/05/12 04:14:43;;;;;;;8.07;4.60;;;;;;;16.42;57.48;100532.00;5983464;23;20042;-79
2023/05/12 04:18:23;;;;;;;9.82;4.68;;;;;;;17.13;56.46;100533.94;5993529;23;20087;-75
2023/05/12 04:22:16;;;;;;;5.93;3.80;;;;;;;17.95;55.75;100528.31;6009649;23;20047;-76
2023/05/12 04:25:44;;;;;;;9.45;4.32;;;;;;;18.50;54.20;100524.13;6009121;23;20032;-74
2023/05/12 04:29:14;;;;;;;10.00;4.65;;;;;;;19.01;53.57;100526.09;6010897;23;20067;-79
2023/05/12 04:32:51;;;;;;;8.00;4.10;;;;;;;19.37;52.82;100520.50;5985756;23;20028;-79
2023/05/12 04:36:27;;;;;;;10.50;4.20;;;;;;;19.65;52.33;100523.03;5976620;23;20035;-75
2023/05/12 04:40:00;;;;;;;12.02;4.20;;;;;;;19.97;51.43;100517.56;6013426;23;20027;-75
2023/05/12 04:43:31;;;;;;;9.73;5.20;;;;;;;20.39;51.02;100522.16;6013294;23;20114;-77
2023/05/12 04:46:59;;;;;;;9.23;4.80;;;;;;;20.60;50.33;100528.38;6013567;23;20372;-75
2023/05/12 04:50:33;;;;;;;8.20;4.53;;;;;;;20.85;49.40;100516.84;6029648;23;20408;-76
2023/05/12 04:54:01;;;;;;;8.23;4.53;;;;;;;21.00;49.21;100499.50;6037177;23;20031;-75
2023/05/12 04:58:37;;;;;;;8.57;4.82;;;;;;;21.67;47.72;100529.34;6065198;23;20444;-77
2023/05/12 05:06:56;;;;;;;10.60;4.38;;;;;;;22.32;46.17;100514.97;6036378;23;19966;-78
2023/05/12 05:10:36;;;;;;;10.57;5.13;;;;;;;22.29;44.94;100516.91;6036309;23;20028;-75
2023/05/12 05:14:11;;;;;;;9.25;4.75;;;;;;;22.40;44.11;100517.25;6036362;23;20051;-76
2023/05/12 05:17:48;;;;;;;10.13;4.50;;;;;;;22.60;43.71;100508.41;6036371;23;20023;-76
2023/05/12 05:21:33;;;;;;;8.18;4.88;;;;;;;23.01;42.38;100494.88;6035734;23;20494;-76
2023/05/12 05:24:58;;;;;;;10.68;4.82;;;;;;;23.56;41.85;100510.75;6012728;23;20407;-74
2023/05/12 05:28:38;;;;;;;9.35;4.55;;;;;;;24.17;40.43;100505.78;5979980;24;20024;-72
2023/05/12 05:32:19;;;;;;;8.48;4.60;;;;;;;24.92;39.15;100498.06;5963054;23;20023;-75
2023/05/12 05:35:51;;;;;;;12.93;4.70;;;;;;;26.64;37.21;100499.22;6008103;23;20027;-75
2023/05/12 05:39:40;;;;;;;11.75;4.68;;;;;;;29.32;33.19;100504.50;6008902;23;20440;-76
2023/05/12 05:47:48;;;;;;;8.35;3.85;;;;;;;34.40;28.56;100496.31;6007492;23;20034;-76
2023/05/12 05:51:19;;;;;;;9.18;4.53;;;;;;;36.10;26.47;100488.13;5960789;23;20361;-75
2023/05/12 05:54:46;;;;;;;10.32;4.45;;;;;;;37.40;24.89;100490.28;6008058;23;20034;-77
2023/05/12 05:58:21;;;;;;;9.82;4.13;;;;;;;38.70;23.33;100490.88;5965044;23;20432;-77
2023/05/12 06:05:36;;;;;;;9.18;4.75;;;;;;;40.83;20.44;100489.59;6016613;23;20027;-79
2023/05/12 06:55:29;;;;;;;10.02;5.25;;;;;;;39.50;15.56;100457.88;5899439;24;20074;-78
2023/05/12 07:00:09;;;;;;;11.73;6.25;;;;;;;38.53;15.37;100468.41;5818060;24;20520;-74
2023/05/12 07:03:20;;;;;;;;;;;;;;;38.27;15.16;100464.19;5791895;24;20038;-77
2023/05/12 07:07:27;;;;;;;19.70;6.25;;;;;;;36.81;16.92;100457.97;5741243;24;20367;-78
2023/05/12 07:16:07;;;;;;;10.40;5.95;;;;;;;41.33;14.91;100454.94;5791082;24;20039;-76
2023/05/12 07:20:28;;;;;;;16.60;6.40;;;;;;;42.55;14.14;100459.78;5791833;24;20034;-76
2023/05/12 07:23:58;;;;;;;16.17;5.30;;;;;;;43.68;13.49;100446.19;5832148;24;20030;-76
2023/05/12 07:27:52;;;;;;;11.27;5.03;;;;;;;45.42;12.31;100443.19;5845168;24;20038;-77
2023/05/12 07:31:26;;;;;;;14.05;5.50;;;;;;;46.59;11.58;100451.31;5899213;24;20026;-74
2023/05/12 07:35:00;;;;;;;10.15;5.97;;;;;;;47.74;10.87;100427.97;5897980;24;20025;-76
2023/05/12 07:39:22;;;;;;;11.43;8.40;;;;;;;48.47;10.05;100439.19;5897271;24;20353;-77
2023/05/12 07:42:45;;;;;;;11.70;6.90;;;;;;;48.79;9.99;100443.28;5973924;24;20024;-76
2023/05/12 07:46:27;;;;;;;13.88;6.40;;;;;;;48.52;9.71;100439.28;5980835;24;20057;-76
2023/05/12 07:49:58;;;;;;;9.70;6.18;;;;;;;47.04;10.02;100447.97;5956667;24;20024;-78
2023/05/12 07:53:34;;;;;;;10.88;5.05;;;;;;;46.27;9.96;100435.06;6067863;23;20022;-76
2023/05/12 07:57:17;;;;;;;9.05;5.63;;;;;;;47.09;9.35;100432.66;6068402;23;20069;-78
2023/05/12 08:00:53;;;;;;;7.47;4.28;;;;;;;47.29;9.29;100430.38;6061353;23;20030;-77
2023/05/12 08:04:31;;;;;;;6.47;4.15;;;;;;;48.46;8.44;100429.25;6091034;23;20053;-78
2023/05/12 08:08:15;;;;;;;6.82;3.80;;;;;;;48.96;8.16;100424.78;6068270;23;20022;-77
2023/05/12 08:11:41;;;;;;;18.45;5.65;;;;;;;49.53;7.75;100425.53;6068454;23;20105;-78
2023/05/12 08:15:12;;;;;;;10.82;5.18;;;;;;;49.79;7.09;100408.38;6065998;23;20181;-79
2023/05/12 08:18:52;;;;;;;3.97;3.20;;;;;;;50.13;7.03;100430.28;6069425;23;20026;-78
2023/05/12 08:23:23;;;;;;;6.13;3.70;;;;;;;50.78;6.34;100439.38;6066474;23;20089;-79
2023/05/12 08:26:54;;;;;;;4.47;3.08;;;;;;;51.02;5.86;100430.66;6043294;23;20222;-82
2023/05/12 08:30:22;;;;;;;4.18;2.78;;;;;;;51.22;6.06;100427.19;6066052;23;20102;-78
2023/05/12 08:34:00;;;;;;;3.58;2.90;;;;;;;51.53;5.22;100420.91;6043490;23;20023;-78
2023/05/12 08:37:42;;;;;;;5.43;2.58;;;;;;;51.12;5.56;100420.75;6042152;23;20038;-77
2023/05/12 08:41:33;;;;;;;4.90;2.72;;;;;;;51.21;5.45;100421.91;6064364;23;20026;-77
2023/05/12 09:01:46;;;;;;;2.70;2.20;;;;;;;50.85;4.24;100399.53;5905322;24;20029;-77
2023/05/12 09:05:14;;;;;;;3.33;2.22;;;;;;;50.06;4.93;100404.78;5928376;24;20028;-76
2023/05/12 09:09:38;;;;;;;6.78;3.15;;;;;;;50.45;4.91;100394.31;5994573;23;20400;-78
2023/05/12 09:13:05;;;;;;;4.85;2.72;;;;;;;50.59;4.61;100389.19;6037505;23;20116;-76
2023/05/12 09:16:32;;;;;;;3.72;2.72;;;;;;;50.68;4.75;100394.19;6065138;23;20023;-76
2023/05/12 09:20:06;;;;;;;4.07;3.22;;;;;;;51.55;4.67;100384.59;6065205;23;20023;-76
2023/05/12 09:23:57;;;;;;;5.90;2.87;;;;;;;51.26;4.59;100379.56;6067309;23;20082;-77
2023/05/12 09:27:27;;;;;;;9.93;3.00;;;;;;;51.09;4.02;100380.59;6067329;23;20640;-77
2023/05/12 09:30:54;;;;;;;4.30;2.47;;;;;;;50.55;4.07;100382.50;6065320;23;20022;-78
2023/05/12 09:34:24;;;;;;;3.83;2.70;;;;;;;51.19;3.65;100366.75;6068859;23;20474;-76
2023/05/12 09:38:02;;;;;;;8.18;2.65;;;;;;;51.66;3.99;100369.69;6066538;23;20023;-78
2023/05/12 09:41:55;;;;;;;5.47;3.58;;;;;;;51.00;4.33;100373.91;6065077;23;20038;-78
2023/05/12 09:45:31;;;;;;;6.25;2.40;;;;;;;50.64;3.94;100357.94;6065853;23;20034;-79
2023/05/12 09:49:08;;;;;;;3.70;3.28;;;;;;;49.70;4.48;100364.63;6062141;23;20413;-76
2023/05/12 09:52:40;;;;;;;5.03;3.00;;;;;;;49.47;4.70;100360.25;6034009;23;20114;-77
2023/05/12 09:56:41;;;;;;;4.13;2.40;;;;;;;49.93;4.51;100365.41;6065995;23;20117;-76
2023/05/12 10:00:07;;;;;;;4.20;2.50;;;;;;;49.44;4.28;100360.75;6063329;23;20059;-75
2023/05/12 10:03:36;;;;;;;3.20;2.17;;;;;;;48.99;4.67;100355.25;6063481;23;20026;-73
2023/05/12 10:07:04;;;;;;;3.58;2.40;;;;;;;47.92;4.50;100358.84;6063201;23;20029;-73
2023/05/12 10:10:34;;;;;;;4.25;2.30;;;;;;;46.98;5.27;100338.84;6039860;23;20355;-73
2023/05/12 10:14:10;;;;;;;2.75;2.17;;;;;;;47.90;4.73;100350.00;6041536;23;20364;-77
2023/05/12 10:17:36;;;;;;;4.00;2.60;;;;;;;47.89;4.86;100341.97;6061883;23;20110;-77
2023/05/12 10:21:07;;;;;;;2.88;2.50;;;;;;;48.16;4.53;100341.31;6042293;23;20482;-73
2023/05/12 10:24:38;;;;;;;3.42;2.33;;;;;;;46.36;4.47;100339.31;6064616;23;20038;-75
2023/05/12 10:28:09;;;;;;;4.18;2.60;;;;;;;43.73;5.69;100339.56;6067693;23;20105;-75
2023/05/12 10:31:40;;;;;;;7.25;3.15;;;;;;;42.05;6.18;100336.31;6068096;23;20027;-75
2023/05/12 10:35:11;;;;;;;7.00;2.60;;;;;;;40.28;7.25;100323.84;6068544;23;20113;-75
2023/05/12 10:38:37;;;;;;;4.35;3.05;;;;;;;39.09;8.14;100323.16;6066257;23;20026;-77
2023/05/12 10:42:24;;;;;;;7.85;4.13;;;;;;;38.28;8.44;100330.03;6087967;23;20047;-78
2023/05/12 10:46:04;;;;;;;6.60;4.75;;;;;;;37.15;9.17;100334.91;6067165;23;20033;-78
2023/05/12 10:49:39;;;;;;;4.63;3.20;;;;;;;36.49;9.54;100327.75;6082370;23;20027;-77
2023/05/12 10:53:15;;;;;;;6.53;2.42;;;;;;;36.06;9.69;100327.06;6092318;23;20151;-76
2023/05/12 10:56:48;;;;;;;5.85;3.00;;;;;;;34.80;10.12;100330.22;6097418;23;20046;-75
2023/05/12 11:00:28;;;;;;;9.32;3.33;;;;;;;34.47;10.54;100330.00;6096296;23;20018;-76
2023/05/12 11:04:02;;;;;;;3.65;2.53;;;;;;;33.91;11.13;100330.16;6097446;23;20022;-75
2023/05/12 11:07:08;;;;;;;;;;;;;;;33.17;11.38;100337.34;6097830;23;20387;-74
2023/05/12 11:10:43;;;;;;;5.60;3.05;;;;;;;32.60;11.74;100335.47;6097289;23;19917;-75
2023/05/12 11:14:09;;;;;;;4.45;2.88;;;;;;;32.28;12.07;100328.56;6072314;23;20025;-75
2023/05/12 11:17:41;;;;;;;4.85;2.40;;;;;;;31.84;12.96;100331.63;6096505;23;20025;-76
2023/05/12 11:21:20;;;;;;;4.28;2.70;;;;;;;31.45;13.26;100337.72;6048844;23;20466;-75
2023/05/12 11:24:47;;;;;;;4.93;2.70;;;;;;;31.37;12.94;100338.41;6094666;23;20348;-76
2023/05/12 11:28:16;;;;;;;7.35;2.92;;;;;;;30.92;12.58;100326.16;6071341;23;20026;-76
2023/05/12 11:31:45;;;;;;;6.03;3.10;;;;;;;30.28;13.15;100336.03;6096303;23;20023;-76
2023/05/12 11:35:13;;;;;;;3.65;2.50;;;;;;;29.94;13.44;100337.94;6070445;23;20081;-76
2023/05/12 11:38:47;;;;;;;3.72;2.60;;;;;;;29.59;13.70;100339.84;6093255;23;20049;-76
2023/05/12 11:42:14;;;;;;;6.47;2.50;;;;;;;29.40;14.04;100344.00;6096490;23;20025;-75
2023/05/12 11:45:50;;;;;;;5.03;2.60;;;;;;;29.12;14.14;100340.81;6071307;23;20022;-76
2023/05/12 11:49:20;;;;;;;8.00;3.08;;;;;;;28.88;14.53;100340.03;6095381;23;20357;-75
2023/05/12 11:52:46;;;;;;;6.63;3.00;;;;;;;28.62;14.90;100316.97;6095659;23;20080;-76
2023/05/12 11:56:38;;;;;;;7.65;3.38;;;;;;;28.36;15.12;100338.53;6047761;23;20018;-75
2023/05/12 12:00:11;;;;;;;5.68;3.15;;;;;;;27.99;15.70;100333.25;6070695;23;20026;-76
2023/05/12 12:03:48;;;;;;;4.80;2.78;;;;;;;27.66;15.69;100335.59;6095290;23;20022;-76
2023/05/12 12:07:16;;;;;;;7.50;2.70;;;;;;;27.34;15.76;100324.53;6092741;23;20018;-75
2023/05/12 12:10:51;;;;;;;5.40;2.88;;;;;;;27.08;16.62;100332.56;6096571;23;20053;-75
2023/05/12 12:14:33;;;;;;;6.45;2.50;;;;;;;27.16;16.59;100326.69;6094996;23;20053;-75
2023/05/12 12:18:01;;;;;;;4.00;2.55;;;;;;;27.32;16.41;100327.28;6070699;23;20029;-75
2023/05/12 12:21:47;;;;;;;5.07;2.60;;;;;;;27.16;16.17;100318.66;6095930;23;20176;-74
2023/05/12 12:25:33;;;;;;;6.30;2.58;;;;;;;26.96;16.80;100320.94;6076786;23;20484;-73
2023/05/12 12:29:51;;;;;;;9.68;3.38;;;;;;;26.75;16.74;100326.75;6096496;23;20049;-75
2023/05/12 12:33:17;;;;;;;6.85;2.63;;;;;;;26.76;16.94;100315.13;6095112;23;20403;-75
2023/05/12 12:36:52;;;;;;;6.30;2.40;;;;;;;26.76;16.86;100311.59;6096106;23;20060;-78
2023/05/12 12:40:25;;;;;;;4.40;2.17;;;;;;;26.62;17.23;100301.84;6089850;23;20038;-76
2023/05/12 12:43:58;;;;;;;2.73;2.50;;;;;;;26.69;17.17;100310.31;6095433;23;20102;-77
2023/05/12 12:47:25;;;;;;;4.32;2.40;;;;;;;26.70;16.76;100304.88;6096405;23;20274;-75
2023/05/12 12:50:54;;;;;;;6.55;2.70;;;;;;;26.69;16.79;100295.16;6094998;23;20089;-75
2023/05/12 12:54:34;;;;;;;4.07;2.40;;;;;;;26.75;17.15;100302.75;6070532;23;20034;-76
2023/05/12 12:58:13;;;;;;;8.02;2.80;;;;;;;26.74;17.36;100298.38;6095513;23;20093;-74
2023/05/12 13:02:15;;;;;;;7.05;2.38;;;;;;;26.49;17.08;100298.31;6075564;23;20406;-75
2023/05/12 13:05:57;;;;;;;5.55;3.03;;;;;;;26.32;17.57;100297.66;6095747;23;20026;-72
2023/05/12 13:09:28;;;;;;;5.95;2.05;;;;;;;26.30;17.38;100302.25;6058187;23;20082;-73
2023/05/12 13:13:24;;;;;;;8.25;2.53;;;;;;;26.02;17.39;100274.72;6095206;23;20026;-75
2023/05/12 13:20:58;;;;;;;7.70;3.17;;;;;;;25.92;17.38;100295.78;6011682;23;20027;-75
2023/05/12 13:25:00;;;;;;;4.35;2.40;;;;;;;26.01;17.79;100283.66;6004033;23;20061;-74
2023/05/12 13:28:30;;;;;;;2.90;2.22;;;;;;;25.98;17.24;100278.53;6014942;23;20050;-75
2023/05/12 13:32:16;;;;;;;3.65;1.98;;;;;;;25.92;17.47;100276.31;6032083;23;20031;-77
2023/05/12 13:35:53;;;;;;;5.57;2.60;;;;;;;25.91;17.54;100278.09;6010027;23;20131;-75
2023/05/12 13:39:38;;;;;;;3.58;2.25;;;;;;;25.82;17.71;100282.22;6022840;23;20046;-78
2023/05/12 13:43:16;;;;;;;5.40;3.15;;;;;;;25.77;18.00;100279.00;6035142;23;20221;-77
2023/05/12 13:46:44;;;;;;;5.00;2.95;;;;;;;25.62;18.18;100274.66;6011223;23;20019;-74
2023/05/12 13:50:43;;;;;;;5.75;2.78;;;;;;;25.45;18.19;100276.63;6044677;23;20027;-74
2023/05/12 13:54:16;;;;;;;8.50;2.67;;;;;;;25.29;18.26;100263.38;6096146;23;20029;-75
2023/05/12 13:58:17;;;;;;;5.75;2.72;;;;;;;25.11;18.43;100263.59;6026962;23;20027;-75
2023/05/12 14:01:46;;;;;;;6.97;3.60;;;;;;;24.91;18.56;100269.31;6006526;23;20029;-77
2023/05/12 14:05:18;;;;;;;11.68;3.25;;;;;;;24.67;19.24;100276.00;6006154;23;20076;-75
2023/05/12 14:08:49;;;;;;;4.35;2.70;;;;;;;24.48;19.24;100278.03;5977159;23;20137;-76
2023/05/12 14:12:33;;;;;;;4.03;2.58;;;;;;;24.24;19.38;100273.22;6006838;23;20024;-74
2023/05/12 14:16:05;;;;;;;5.40;2.47;;;;;;;24.08;19.64;100269.75;6006864;23;20027;-77
2023/05/12 14:19:38;;;;;;;6.10;2.70;;;;;;;23.88;19.79;100269.09;5983100;23;20030;-74
2023/05/12 14:23:18;;;;;;;5.78;2.08;;;;;;;23.79;19.59;100272.25;5980915;23;20023;-75
2023/05/12 14:26:43;;;;;;;3.30;2.25;;;;;;;23.70;19.65;100269.19;5983201;23;20020;-75
2023/05/12 14:30:15;;;;;;;6.30;2.37;;;;;;;23.60;19.71;100260.00;6083998;23;20029;-75
2023/05/12 14:33:41;;;;;;;4.00;2.65;;;;;;;23.53;19.90;100269.25;6069466;23;20026;-73
2023/05/12 14:37:38;;;;;;;7.50;3.05;;;;;;;23.43;19.90;100253.84;6038262;23;20022;-75
2023/05/12 14:41:08;;;;;;;3.92;2.08;;;;;;;23.44;19.76;100250.25;6075618;23;20322;-77
2023/05/12 14:44:44;;;;;;;8.32;2.58;;;;;;;23.29;19.91;100259.94;6069161;23;20025;-75
2023/05/12 14:48:16;;;;;;;5.90;2.33;;;;;;;23.28;20.25;100260.88;6095741;23;20041;-75
2023/05/12 14:51:50;;;;;;;5.28;2.50;;;;;;;23.23;20.43;100257.59;6090583;23;20025;-75
2023/05/12 14:55:24;;;;;;;5.57;2.30;;;;;;;23.09;20.39;100255.66;6095190;23;20022;-75
2023/05/12 14:58:58;;;;;;;8.98;3.03;;;;;;;22.86;20.73;100236.53;6095480;23;20446;-74
2023/05/12 15:02:06;;;;;;;;;;;;;;;22.91;20.71;100257.53;6070247;23;20027;-75
2023/05/12 15:05:36;;;;;;;10.10;2.90;;;;;;;22.89;20.51;100254.09;6070802;23;19912;-73
2023/05/12 15:09:03;;;;;;;6.03;2.97;;;;;;;22.79;20.55;100243.13;6095622;23;20317;-74
2023/05/12 15:12:30;;;;;;;4.68;2.40;;;;;;;22.77;21.02;100258.25;6095794;23;20481;-73
2023/05/12 15:16:00;;;;;;;5.20;2.40;;;;;;;22.61;21.03;100234.31;6094775;23;20030;-72
2023/05/12 15:19:41;;;;;;;7.72;2.83;;;;;;;22.60;21.31;100252.97;6095263;23;20022;-74
2023/05/12 15:23:33;;;;;;;8.13;2.90;;;;;;;22.50;21.35;100250.78;6009007;23;20028;-73
2023/05/12 15:27:07;;;;;;;10.82;2.90;;;;;;;22.49;21.11;100259.69;6008070;23;20033;-75
2023/05/12 15:30:37;;;;;;;8.02;3.08;;;;;;;22.48;21.45;100251.81;6008084;23;20023;-73
2023/05/12 15:34:07;;;;;;;8.93;3.13;;;;;;;22.54;21.55;100259.44;5977519;23;20491;-75
2023/05/12 15:37:44;;;;;;;8.40;2.90;;;;;;;22.48;21.22;100246.50;6007712;23;20092;-74
2023/05/12 15:41:13;;;;;;;4.45;2.40;;;;;;;22.50;21.62;100255.25;6008345;23;20027;-75
2023/05/12 15:44:42;;;;;;;3.20;2.30;;;;;;;22.41;21.63;100252.09;6007918;23;20083;-74
2023/05/12 15:48:29;;;;;;;4.53;2.70;;;;;;;22.38;21.53;100251.41;5984686;23;20089;-75
2023/05/12 15:52:31;;;;;;;8.05;3.28;;;;;;;22.31;21.71;100250.00;5976340;24;20369;-75
2023/05/12 15:56:01;;;;;;;4.10;2.65;;;;;;;22.29;21.89;100252.69;5985522;23;20126;-77
2023/05/12 15:59:37;;;;;;;6.43;3.15;;;;;;;22.14;22.21;100251.72;6017726;23;20023;-75
2023/05/12 16:03:24;;;;;;;12.10;5.30;;;;;;;22.02;22.28;100255.81;6042312;23;20030;-76
2023/05/12 16:06:58;;;;;;;8.40;4.18;;;;;;;21.89;22.83;100260.00;6068188;23;20097;-75
2023/05/12 16:10:52;;;;;;;13.23;5.18;;;;;;;21.69;23.04;100251.22;5980201;24;20072;-75
2023/05/12 16:14:44;;;;;;;13.13;6.50;;;;;;;21.53;22.99;100232.53;5979546;24;20108;-73
2023/05/12 16:18:59;;;;;;;9.30;4.78;;;;;;;21.57;23.05;100249.16;5956605;24;20046;-74
2023/05/12 16:22:32;;;;;;;7.47;4.10;;;;;;;21.49;23.44;100252.16;5979558;24;20028;-74
2023/05/12 16:26:03;;;;;;;10.95;4.53;;;;;;;21.24;23.72;100231.28;5976730;24;20488;-76
2023/05/12 16:29:36;;;;;;;7.78;4.25;;;;;;;21.20;23.65;100244.63;5979816;24;20096;-75
2023/05/12 16:33:58;;;;;;;9.95;3.80;;;;;;;21.17;24.24;100257.16;5978611;24;20496;-76
2023/05/12 16:37:05;;;;;;;;;;;;;;;21.08;24.36;100258.44;5979389;24;20020;-75
2023/05/12 16:40:45;;;;;;;8.18;3.63;;;;;;;20.93;24.36;100259.97;5980155;24;19918;-76
2023/05/12 16:44:15;;;;;;;7.88;4.10;;;;;;;20.83;24.88;100262.19;5980267;24;20500;-73
2023/05/12 16:47:55;;;;;;;17.60;5.10;;;;;;;20.70;25.03;100258.34;5979606;24;20024;-73
2023/05/12 16:51:29;;;;;;;18.45;5.40;;;;;;;20.60;25.53;100265.81;5981017;24;20500;-75
2023/05/12 16:55:18;;;;;;;13.90;5.15;;;;;;;20.56;25.90;100258.94;5979353;24;20072;-73
2023/05/12 16:59:19;;;;;;;21.15;5.97;;;;;;;20.39;25.89;100270.22;5998215;23;20023;-74
2023/05/12 17:03:07;;;;;;;26.05;6.75;;;;;;;20.19;26.51;100255.22;6066207;23;20022;-73
2023/05/12 17:06:34;;;;;;;25.65;6.40;;;;;;;20.25;27.04;100276.09;6065270;23;20071;-73
2023/05/12 17:10:00;;;;;;;23.35;7.57;;;;;;;20.13;26.82;100266.88;6066855;23;20026;-72
2023/05/12 17:13:27;;;;;;;28.00;11.73;;;;;;;19.95;27.29;100252.69;6066376;23;20456;-73
2023/05/12 17:16:54;;;;;;;30.55;8.35;;;;;;;19.99;27.63;100281.53;6041826;23;20027;-73
2023/05/12 17:20:20;;;;;;;24.80;7.57;;;;;;;19.90;28.19;100284.53;6066952;23;20022;-75
2023/05/12 17:23:47;;;;;;;15.15;4.88;;;;;;;19.77;27.89;100284.13;6067689;23;20077;-73
2023/05/12 17:27:13;;;;;;;12.38;4.53;;;;;;;19.66;27.59;100292.47;6041634;23;20101;-72
2023/05/12 17:30:41;;;;;;;11.57;4.43;;;;;;;19.57;27.82;100285.75;6066335;23;20034;-74
2023/05/12 17:34:06;;;;;;;10.50;4.15;;;;;;;19.44;27.67;100292.44;6065840;23;20019;-74
2023/05/12 17:37:32;;;;;;;8.95;4.50;;;;;;;19.34;27.87;100296.34;6066376;23;20030;-74
2023/05/12 17:41:01;;;;;;;13.95;4.65;;;;;;;19.17;27.98;100297.81;6066621;23;20078;-74
2023/05/12 17:44:29;;;;;;;12.50;4.47;;;;;;;19.02;28.12;100298.41;6065219;23;20038;-74
2023/05/12 17:47:55;;;;;;;9.15;4.18;;;;;;;18.93;28.10;100308.31;6066741;23;20029;-74
2023/05/12 17:51:28;;;;;;;5.65;3.40;;;;;;;18.76;28.43;100298.34;6062531;23;20054;-74
2023/05/12 17:54:52;;;;;;;9.77;3.63;;;;;;;18.69;28.26;100306.53;6094917;23;20054;-71
2023/05/12 17:58:21;;;;;;;9.20;4.18;;;;;;;18.61;28.05;100306.81;6095337;23;20104;-72
2023/05/12 18:01:48;;;;;;;6.07;3.92;;;;;;;18.50;28.15;100315.06;6068931;23;20391;-73
2023/05/12 18:05:21;;;;;;;6.68;3.80;;;;;;;18.34;28.14;100302.41;6089896;23;20117;-76
2023/05/12 18:12:38;;;;;;;10.90;4.35;;;;;;;18.08;28.31;100319.09;6064951;23;20022;-76
2023/05/12 18:16:08;;;;;;;8.10;4.00;;;;;;;17.91;28.60;100316.94;6065666;23;20030;-73
2023/05/12 18:19:33;;;;;;;11.82;4.40;;;;;;;17.70;29.09;100295.63;6091486;23;20057;-73
2023/05/12 18:23:01;;;;;;;9.35;4.32;;;;;;;17.69;29.32;100321.97;6090558;23;20050;-73
2023/05/12 18:26:28;;;;;;;9.50;4.10;;;;;;;17.59;29.58;100330.16;6066257;23;20042;-73
2023/05/12 18:29:55;;;;;;;8.68;3.47;;;;;;;17.51;29.27;100328.69;6066274;23;20040;-73
2023/05/12 18:33:23;;;;;;;10.90;3.72;;;;;;;17.37;29.55;100321.19;6089716;23;20041;-73
2023/05/12 18:36:50;;;;;;;12.50;6.50;;;;;;;17.27;29.67;100328.47;6092887;23;20054;-74
2023/05/12 18:40:22;;;;;;;15.95;7.97;;;;;;;17.15;29.92;100333.16;6093227;23;20018;-73
2023/05/12 18:43:49;;;;;;;19.58;8.77;;;;;;;17.06;30.04;100343.94;6093143;23;20050;-74
2023/05/12 18:47:14;;;;;;;13.60;6.18;;;;;;;16.98;30.11;100346.78;6067899;23;20027;-74
2023/05/12 18:50:40;;;;;;;34.90;17.75;;;;;;;16.88;30.12;100344.41;6094091;23;20018;-74
2023/05/12 18:54:07;;;;;;;23.27;11.75;;;;;;;16.77;30.54;100342.06;6092499;23;20026;-75
2023/05/12 18:57:38;;;;;;;24.30;14.43;;;;;;;16.64;30.31;100331.84;6069025;23;20036;-74